Time,TemperatureF,DewpointF,PressureIn,WindDirection,WindDirectionDegrees,WindSpeedMPH,WindSpeedGustMPH,Humidity,HourlyPrecipIn,Conditions,Clouds,dailyrainin,SoftwareType,DateUTC
2013-04-27 00:03:00,41.0,34.0,30.46,North,0,0.0,-999.0,75,-99.99,,,-99.99,,2013-04-27 04:03:00,
2013-04-27 00:13:00,39.0,36.0,30.45,North,0,0.0,-999.0,86,-99.99,,,-99.99,,2013-04-27 04:13:00,
2013-04-27 00:23:00,39.0,36.0,30.46,North,0,0.0,-999.0,86,-99.99,,,-99.99,,2013-04-27 04:23:00,
2013-04-27 00:33:00,39.0,34.0,30.46,North,0,0.0,-999.0,80,-99.99,,,-99.99,,2013-04-27 04:33:00,
2013-04-27 00:43:00,39.0,34.0,30.46,North,0,0.0,-999.0,80,-99.99,,,-99.99,,2013-04-27 04:43:00,
2013-04-27 00:52:00,39.0,34.0,30.46,North,0,0.0,-999.0,80,-99.99,,,-99.99,,2013-04-27 04:52:00,
2013-04-27 01:02:00,39.0,34.0,30.46,North,0,0.0,-999.0,80,-99.99,,,-99.99,,2013-04-27 05:02:00,
2013-04-27 01:12:00,37.0,34.0,30.46,North,0,0.0,-999.0,86,-99.99,,,-99.99,,2013-04-27 05:12:00,
2013-04-27 01:22:00,37.0,34.0,30.46,North,0,0.0,-999.0,86,-99.99,,,-99.99,,2013-04-27 05:22:00,
2013-04-27 01:32:00,37.0,34.0,30.46,North,0,0.0,-999.0,86,-99.99,,,-99.99,,2013-04-27 05:32:00,
2013-04-27 01:42:00,37.0,34.0,30.46,North,0,0.0,-999.0,86,-99.99,,,-99.99,,2013-04-27 05:42:00,
2013-04-27 01:52:00,37.0,34.0,30.46,North,0,0.0,-999.0,86,-99.99,,,-99.99,,2013-04-27 05:52:00,
2013-04-27 02:02:00,37.0,34.0,30.46,North,0,0.0,-999.0,86,-99.99,,,-99.99,,2013-04-27 06:02:00,
2013-04-27 02:12:00,37.0,34.0,30.46,North,0,0.0,-999.0,86,-99.99,,,-99.99,,2013-04-27 06:12:00,
2013-04-27 02:22:00,37.0,34.0,30.45,North,0,0.0,-999.0,86,-99.99,,,-99.99,,2013-04-27 06:22:00,
2013-04-27 02:32:00,37.0,34.0,30.44,North,0,0.0,-999.0,86,-99.99,,,-99.99,,2013-04-27 06:32:00,
2013-04-27 02:42:00,36.0,34.0,30.44,North,0,0.0,-999.0,93,-99.99,,,-99.99,,2013-04-27 06:42:00,
2013-04-27 02:52:00,36.0,34.0,30.44,North,0,0.0,-999.0,93,-99.99,,,-99.99,,2013-04-27 06:52:00,
2013-04-27 03:01:00,36.0,34.0,30.44,North,0,0.0,-999.0,93,-99.99,,,-99.99,,2013-04-27 07:01:00,
2013-04-27 03:11:00,36.0,34.0,30.43,North,0,0.0,-999.0,93,-99.99,,,-99.99,,2013-04-27 07:11:00,
2013-04-27 03:21:00,36.0,34.0,30.44,North,0,0.0,-999.0,93,-99.99,,,-99.99,,2013-04-27 07:21:00,
2013-04-27 03:32:00,36.0,34.0,30.44,North,0,0.0,-999.0,93,-99.99,,,-99.99,,2013-04-27 07:32:00,
2013-04-27 03:42:00,36.0,34.0,30.44,North,0,0.0,-999.0,93,-99.99,,,-99.99,,2013-04-27 07:42:00,
2013-04-27 03:52:00,36.0,34.0,30.44,North,0,0.0,-999.0,93,-99.99,,,-99.99,,2013-04-27 07:52:00,
2013-04-27 04:02:00,36.0,34.0,30.44,North,0,0.0,-999.0,93,-99.99,,,-99.99,,2013-04-27 08:02:00,
2013-04-27 04:12:00,36.0,34.0,30.44,North,0,0.0,-999.0,93,-99.99,,,-99.99,,2013-04-27 08:12:00,
2013-04-27 04:21:00,34.0,32.0,30.44,North,0,0.0,-999.0,93,-99.99,,,-99.99,,2013-04-27 08:21:00,
2013-04-27 04:33:00,34.0,32.0,30.44,North,0,0.0,-999.0,93,-99.99,,,-99.99,,2013-04-27 08:33:00,
2013-04-27 04:41:00,34.0,34.0,30.44,North,0,0.0,-999.0,100,-99.99,,,-99.99,,2013-04-27 08:41:00,
2013-04-27 04:51:00,34.0,32.0,30.44,North,0,0.0,-999.0,93,-99.99,,,-99.99,,2013-04-27 08:51:00,
2013-04-27 05:01:00,34.0,32.0,30.44,North,0,0.0,-999.0,93,-99.99,,,-99.99,,2013-04-27 09:01:00,
2013-04-27 05:11:00,34.0,32.0,30.44,North,0,0.0,-999.0,93,-99.99,,,-99.99,,2013-04-27 09:11:00,
2013-04-27 05:21:00,34.0,32.0,30.44,North,0,0.0,-999.0,93,-99.99,,,-99.99,,2013-04-27 09:21:00,
2013-04-27 05:33:00,34.0,32.0,30.44,North,0,0.0,-999.0,93,-99.99,,,-99.99,,2013-04-27 09:33:00,
2013-04-27 05:42:00,34.0,32.0,30.44,North,0,0.0,-999.0,93,-99.99,,,-99.99,,2013-04-27 09:42:00,
2013-04-27 05:53:00,34.0,32.0,30.44,North,0,0.0,-999.0,93,-99.99,,,-99.99,,2013-04-27 09:53:00,
2013-04-27 06:03:00,34.0,32.0,30.44,North,0,0.0,-999.0,93,-99.99,,,-99.99,,2013-04-27 10:03:00,
2013-04-27 06:12:00,34.0,32.0,30.44,North,0,0.0,-999.0,93,-99.99,,,-99.99,,2013-04-27 10:12:00,
2013-04-27 06:22:00,34.0,32.0,30.44,North,0,0.0,-999.0,93,-99.99,,,-99.99,,2013-04-27 10:22:00,
2013-04-27 06:33:00,34.0,32.0,30.44,North,0,0.0,-999.0,93,-99.99,,,-99.99,,2013-04-27 10:33:00,
2013-04-27 06:42:00,34.0,32.0,30.45,North,0,0.0,-999.0,93,-99.99,,,-99.99,,2013-04-27 10:42:00,
2013-04-27 06:52:00,34.0,32.0,30.45,North,0,0.0,-999.0,93,-99.99,,,-99.99,,2013-04-27 10:52:00,
2013-04-27 07:02:00,34.0,32.0,30.45,North,0,0.0,-999.0,93,-99.99,,,-99.99,,2013-04-27 11:02:00,
2013-04-27 07:12:00,36.0,34.0,30.45,North,0,0.0,-999.0,93,-99.99,,,-99.99,,2013-04-27 11:12:00,
2013-04-27 07:22:00,36.0,34.0,30.46,North,0,0.0,-999.0,93,-99.99,,,-99.99,,2013-04-27 11:22:00,
2013-04-27 07:32:00,37.0,36.0,30.46,North,0,0.0,-999.0,93,-99.99,,,-99.99,,2013-04-27 11:32:00,
2013-04-27 07:42:00,37.0,36.0,30.46,North,0,0.0,-999.0,93,-99.99,,,-99.99,,2013-04-27 11:42:00,
2013-04-27 07:52:00,39.0,36.0,30.46,North,0,0.0,-999.0,86,-99.99,,,-99.99,,2013-04-27 11:52:00,
2013-04-27 08:01:00,41.0,36.0,30.46,North,0,0.0,-999.0,80,-99.99,,,-99.99,,2013-04-27 12:01:00,
2013-04-27 08:11:00,43.0,36.0,30.46,North,0,0.0,-999.0,75,-99.99,,,-99.99,,2013-04-27 12:11:00,
2013-04-27 08:22:00,45.0,37.0,30.46,North,0,0.0,-999.0,75,-99.99,,,-99.99,,2013-04-27 12:22:00,
2013-04-27 08:32:00,46.0,37.0,30.46,North,0,0.0,-999.0,70,-99.99,,,-99.99,,2013-04-27 12:32:00,
2013-04-27 08:42:00,46.0,36.0,30.46,North,0,0.0,-999.0,65,-99.99,,,-99.99,,2013-04-27 12:42:00,
2013-04-27 08:52:00,48.0,36.0,30.46,North,350,3.0,-999.0,61,-99.99,,,-99.99,,2013-04-27 12:52:00,
2013-04-27 09:02:00,48.0,36.0,30.46,North,0,0.0,-999.0,61,-99.99,,,-99.99,,2013-04-27 13:02:00,
2013-04-27 09:11:00,48.0,36.0,30.46,North,0,0.0,-999.0,61,-99.99,,,-99.99,,2013-04-27 13:11:00,
2013-04-27 09:21:00,50.0,36.0,30.46,North,0,0.0,-999.0,57,-99.99,,,-99.99,,2013-04-27 13:21:00,
2013-04-27 09:32:00,52.0,36.0,30.46,North,10,5.0,-999.0,53,-99.99,,,-99.99,,2013-04-27 13:32:00,
2013-04-27 09:42:00,52.0,36.0,30.46,North,10,5.0,-999.0,53,-99.99,,,-99.99,,2013-04-27 13:42:00,
2013-04-27 09:52:00,52.0,37.0,30.46,NNE,20,5.0,-999.0,57,-99.99,,,-99.99,,2013-04-27 13:52:00,
2013-04-27 10:02:00,52.0,37.0,30.46,North,0,0.0,-999.0,57,-99.99,,,-99.99,,2013-04-27 14:02:00,
2013-04-27 10:11:00,54.0,37.0,30.46,NW,320,3.0,-999.0,54,-99.99,,,-99.99,,2013-04-27 14:11:00,
2013-04-27 10:21:00,54.0,37.0,30.45,NNW,330,5.0,-999.0,54,-99.99,,,-99.99,,2013-04-27 14:21:00,
2013-04-27 10:32:00,55.0,37.0,30.45,NNE,20,3.0,-999.0,50,-99.99,,,-99.99,,2013-04-27 14:32:00,
2013-04-27 10:42:00,55.0,37.0,30.45,North,10,3.0,-999.0,50,-99.99,,,-99.99,,2013-04-27 14:42:00,
2013-04-27 10:52:00,55.0,37.0,30.45,NNE,20,3.0,-999.0,50,-99.99,,,-99.99,,2013-04-27 14:52:00,
2013-04-27 11:01:00,57.0,37.0,30.45,NNW,340,6.0,-999.0,47,-99.99,,,-99.99,,2013-04-27 15:01:00,
2013-04-27 11:12:00,57.0,37.0,30.44,ENE,60,5.0,-999.0,47,-99.99,,,-99.99,,2013-04-27 15:12:00,
2013-04-27 11:22:00,59.0,34.0,30.44,NE,50,8.0,-999.0,38,-99.99,,,-99.99,,2013-04-27 15:22:00,
2013-04-27 11:33:00,61.0,34.0,30.44,North,10,7.0,-999.0,36,-99.99,,,-99.99,,2013-04-27 15:33:00,
2013-04-27 11:42:00,59.0,34.0,30.44,North,10,3.0,-999.0,38,-99.99,,,-99.99,,2013-04-27 15:42:00,
2013-04-27 11:52:00,61.0,30.0,30.43,NNE,30,12.0,18.0,31,-99.99,,,-99.99,,2013-04-27 15:52:00,
2013-04-27 12:03:00,61.0,34.0,30.43,NE,40,10.0,18.0,36,-99.99,,,-99.99,,2013-04-27 16:03:00,
2013-04-27 12:13:00,61.0,30.0,30.42,North,360,8.0,-999.0,31,-99.99,,,-99.99,,2013-04-27 16:13:00,
2013-04-27 12:22:00,63.0,32.0,30.41,NE,40,10.0,-999.0,31,-99.99,,,-99.99,,2013-04-27 16:22:00,
2013-04-27 12:33:00,63.0,34.0,30.41,NE,40,10.0,-999.0,33,-99.99,,,-99.99,,2013-04-27 16:33:00,
2013-04-27 12:42:00,63.0,30.0,30.41,NNW,340,3.0,-999.0,29,-99.99,,,-99.99,,2013-04-27 16:42:00,
2013-04-27 12:52:00,63.0,30.0,30.40,NE,40,8.0,-999.0,29,-99.99,,,-99.99,,2013-04-27 16:52:00,
2013-04-27 13:02:00,63.0,28.0,30.39,ENE,60,7.0,-999.0,27,-99.99,,,-99.99,,2013-04-27 17:02:00,
2013-04-27 13:12:00,64.0,28.0,30.39,ENE,70,6.0,-999.0,25,-99.99,,,-99.99,,2013-04-27 17:12:00,
2013-04-27 13:22:00,64.0,21.0,30.38,East,80,3.0,-999.0,18,-99.99,,,-99.99,,2013-04-27 17:22:00,
2013-04-27 13:32:00,64.0,25.0,30.38,NE,40,7.0,-999.0,22,-99.99,,,-99.99,,2013-04-27 17:32:00,
2013-04-27 13:42:00,64.0,25.0,30.38,NNE,20,9.0,-999.0,22,-99.99,,,-99.99,,2013-04-27 17:42:00,
2013-04-27 13:53:00,66.0,27.0,30.37,NE,50,10.0,-999.0,22,-99.99,,,-99.99,,2013-04-27 17:53:00,
2013-04-27 14:02:00,64.0,25.0,30.37,NE,50,3.0,-999.0,22,-99.99,,,-99.99,,2013-04-27 18:02:00,
2013-04-27 14:12:00,66.0,25.0,30.37,ENE,70,8.0,-999.0,20,-99.99,,,-99.99,,2013-04-27 18:12:00,
2013-04-27 14:22:00,66.0,25.0,30.36,NNE,20,5.0,-999.0,20,-99.99,,,-99.99,,2013-04-27 18:22:00,
2013-04-27 14:32:00,66.0,28.0,30.36,NE,50,9.0,-999.0,24,-99.99,,,-99.99,,2013-04-27 18:32:00,
2013-04-27 14:42:00,66.0,28.0,30.36,ENE,60,7.0,-999.0,24,-99.99,,,-99.99,,2013-04-27 18:42:00,
2013-04-27 14:52:00,68.0,30.0,30.35,NE,40,7.0,-999.0,24,-99.99,,,-99.99,,2013-04-27 18:52:00,
2013-04-27 15:02:00,68.0,34.0,30.35,NE,40,9.0,-999.0,28,-99.99,,,-99.99,,2013-04-27 19:02:00,
2013-04-27 15:11:00,66.0,30.0,30.34,North,10,3.0,-999.0,25,-99.99,,,-99.99,,2013-04-27 19:11:00,
2013-04-27 15:21:00,68.0,30.0,30.34,NNE,30,5.0,-999.0,24,-99.99,,,-99.99,,2013-04-27 19:21:00,
2013-04-27 15:32:00,68.0,34.0,30.33,NNE,20,9.0,-999.0,28,-99.99,,,-99.99,,2013-04-27 19:32:00,
2013-04-27 15:42:00,68.0,30.0,30.33,NNE,20,7.0,-999.0,24,-99.99,,,-99.99,,2013-04-27 19:42:00,
2013-04-27 15:52:00,68.0,32.0,30.32,NNE,30,8.0,-999.0,26,-99.99,,,-99.99,,2013-04-27 19:52:00,
2013-04-27 16:02:00,70.0,32.0,30.32,NE,40,8.0,-999.0,24,-99.99,,,-99.99,,2013-04-27 20:02:00,
2013-04-27 16:11:00,70.0,32.0,30.31,North,10,3.0,-999.0,24,-99.99,,,-99.99,,2013-04-27 20:11:00,
2013-04-27 16:21:00,70.0,34.0,30.31,North,10,13.0,16.0,26,-99.99,,,-99.99,,2013-04-27 20:21:00,
2013-04-27 16:32:00,70.0,34.0,30.31,NNW,330,5.0,-999.0,26,-99.99,,,-99.99,,2013-04-27 20:32:00,
2013-04-27 16:42:00,70.0,34.0,30.31,NNE,20,10.0,-999.0,26,-99.99,,,-99.99,,2013-04-27 20:42:00,
2013-04-27 16:52:00,70.0,34.0,30.30,NNE,30,9.0,-999.0,26,-99.99,,,-99.99,,2013-04-27 20:52:00,
2013-04-27 17:02:00,70.0,34.0,30.30,NE,40,8.0,-999.0,26,-99.99,,,-99.99,,2013-04-27 21:02:00,
2013-04-27 17:12:00,70.0,34.0,30.30,NNE,20,9.0,-999.0,26,-99.99,,,-99.99,,2013-04-27 21:12:00,
2013-04-27 17:21:00,68.0,36.0,30.29,NNE,30,9.0,-999.0,30,-99.99,,,-99.99,,2013-04-27 21:21:00,
2013-04-27 17:33:00,68.0,36.0,30.29,NE,50,7.0,-999.0,30,-99.99,,,-99.99,,2013-04-27 21:33:00,
2013-04-27 17:43:00,68.0,36.0,30.29,NNE,30,7.0,-999.0,30,-99.99,,,-99.99,,2013-04-27 21:43:00,
2013-04-27 17:53:00,68.0,34.0,30.29,NE,40,8.0,-999.0,28,-99.99,,,-99.99,,2013-04-27 21:53:00,
2013-04-27 18:03:00,68.0,34.0,30.29,NE,40,7.0,-999.0,28,-99.99,,,-99.99,,2013-04-27 22:03:00,
2013-04-27 18:13:00,68.0,34.0,30.29,NE,50,5.0,-999.0,28,-99.99,,,-99.99,,2013-04-27 22:13:00,
2013-04-27 18:22:00,70.0,34.0,30.29,North,0,0.0,-999.0,26,-99.99,,,-99.99,,2013-04-27 22:22:00,
2013-04-27 18:32:00,70.0,34.0,30.29,NNE,20,5.0,-999.0,26,-99.99,,,-99.99,,2013-04-27 22:32:00,
2013-04-27 18:42:00,70.0,34.0,30.29,NNE,20,7.0,-999.0,26,-99.99,,,-99.99,,2013-04-27 22:42:00,
2013-04-27 18:52:00,66.0,32.0,30.29,North,360,3.0,-999.0,27,-99.99,,,-99.99,,2013-04-27 22:52:00,
2013-04-27 19:02:00,66.0,32.0,30.29,North,360,3.0,-999.0,27,-99.99,,,-99.99,,2013-04-27 23:02:00,
2013-04-27 19:12:00,66.0,36.0,30.29,North,0,0.0,-999.0,32,-99.99,,,-99.99,,2013-04-27 23:12:00,
2013-04-27 19:22:00,66.0,34.0,30.28,NE,50,3.0,-999.0,29,-99.99,,,-99.99,,2013-04-27 23:22:00,
2013-04-27 19:32:00,66.0,34.0,30.29,North,0,0.0,-999.0,29,-99.99,,,-99.99,,2013-04-27 23:32:00,
2013-04-27 19:42:00,66.0,34.0,30.29,North,0,0.0,-999.0,29,-99.99,,,-99.99,,2013-04-27 23:42:00,
2013-04-27 19:52:00,63.0,36.0,30.29,North,0,0.0,-999.0,36,-99.99,,,-99.99,,2013-04-27 23:52:00,
2013-04-27 20:01:00,63.0,36.0,30.29,North,0,0.0,-999.0,36,-99.99,,,-99.99,,2013-04-28 00:01:00,
2013-04-27 20:12:00,61.0,36.0,30.28,North,0,0.0,-999.0,38,-99.99,,,-99.99,,2013-04-28 00:12:00,
2013-04-27 20:21:00,59.0,37.0,30.29,North,0,0.0,-999.0,44,-99.99,,,-99.99,,2013-04-28 00:21:00,
2013-04-27 20:32:00,57.0,36.0,30.28,North,0,0.0,-999.0,44,-99.99,,,-99.99,,2013-04-28 00:32:00,
2013-04-27 20:42:00,57.0,37.0,30.28,North,0,0.0,-999.0,47,-99.99,,,-99.99,,2013-04-28 00:42:00,
2013-04-27 20:52:00,55.0,37.0,30.29,North,0,0.0,-999.0,50,-99.99,,,-99.99,,2013-04-28 00:52:00,
2013-04-27 21:02:00,55.0,39.0,30.29,North,0,0.0,-999.0,54,-99.99,,,-99.99,,2013-04-28 01:02:00,
2013-04-27 21:11:00,55.0,37.0,30.29,North,0,0.0,-999.0,50,-99.99,,,-99.99,,2013-04-28 01:11:00,
2013-04-27 21:22:00,54.0,39.0,30.30,North,0,0.0,-999.0,58,-99.99,,,-99.99,,2013-04-28 01:22:00,
2013-04-27 21:32:00,54.0,39.0,30.30,North,0,0.0,-999.0,58,-99.99,,,-99.99,,2013-04-28 01:32:00,
2013-04-27 21:42:00,54.0,39.0,30.30,North,0,0.0,-999.0,58,-99.99,,,-99.99,,2013-04-28 01:42:00,
2013-04-27 21:52:00,52.0,41.0,30.31,North,0,0.0,-999.0,66,-99.99,,,-99.99,,2013-04-28 01:52:00,
2013-04-27 22:02:00,52.0,39.0,30.30,North,0,0.0,-999.0,61,-99.99,,,-99.99,,2013-04-28 02:02:00,
2013-04-27 22:12:00,52.0,39.0,30.30,North,0,0.0,-999.0,61,-99.99,,,-99.99,,2013-04-28 02:12:00,
2013-04-27 22:22:00,52.0,41.0,30.31,North,0,0.0,-999.0,66,-99.99,,,-99.99,,2013-04-28 02:22:00,
2013-04-27 22:32:00,52.0,39.0,30.31,North,0,0.0,-999.0,61,-99.99,,,-99.99,,2013-04-28 02:32:00,
2013-04-27 22:42:00,52.0,39.0,30.31,North,0,0.0,-999.0,61,-99.99,,,-99.99,,2013-04-28 02:42:00,
2013-04-27 22:52:00,50.0,39.0,30.31,North,0,0.0,-999.0,66,-99.99,,,-99.99,,2013-04-28 02:52:00,
2013-04-27 23:01:00,48.0,39.0,30.30,North,0,0.0,-999.0,70,-99.99,,,-99.99,,2013-04-28 03:01:00,
2013-04-27 23:11:00,48.0,39.0,30.30,North,0,0.0,-999.0,70,-99.99,,,-99.99,,2013-04-28 03:11:00,
2013-04-27 23:21:00,46.0,41.0,30.30,North,0,0.0,-999.0,81,-99.99,,,-99.99,,2013-04-28 03:21:00,
2013-04-27 23:33:00,46.0,39.0,30.30,North,0,0.0,-999.0,75,-99.99,,,-99.99,,2013-04-28 03:33:00,
2013-04-27 23:43:00,46.0,39.0,30.30,North,0,0.0,-999.0,75,-99.99,,,-99.99,,2013-04-28 03:43:00,
2013-04-27 23:53:00,46.0,39.0,30.30,North,0,0.0,-999.0,75,-99.99,,,-99.99,,2013-04-28 03:53:00,